Time;durP1;ratioP1;P1;durP2;ratioP2;P2;SDS_P1;SDS_P2;PMS_P1;PMS_P2;Temp;Humidity;BMP_temperature;BMP_pressure;BME280_temperature;BME280_humidity;BME280_pressure;Samples;Min_cycle;Max_cycle;Signal;HPM_P1;HPM_P2
2021/10/31 00:00:19;;;;;;;26.50;18.65;;;10.20;99.90;;;;;;5016432;28;20029;-42
2021/10/31 00:02:44;;;;;;;25.58;17.33;;;10.10;99.90;;;;;;5012691;28;20076;-45
2021/10/31 00:05:10;;;;;;;25.98;18.08;;;10.00;99.90;;;;;;5000305;28;20030;-43
2021/10/31 00:07:36;;;;;;;46.67;28.98;;;10.00;99.90;;;;;;4992399;28;20073;-45
2021/10/31 00:10:03;;;;;;;51.05;29.70;;;9.90;99.90;;;;;;4992158;28;20057;-46
2021/10/31 00:12:29;;;;;;;26.40;16.23;;;9.90;99.90;;;;;;4992595;28;20105;-47
2021/10/31 00:14:54;;;;;;;24.60;17.77;;;9.90;99.90;;;;;;4992649;28;20110;-44
2021/10/31 00:17:20;;;;;;;24.30;18.13;;;9.90;99.90;;;;;;4992404;28;20502;-45
2021/10/31 00:19:46;;;;;;;24.42;17.35;;;9.90;99.90;;;;;;4992462;28;20476;-46
2021/10/31 00:22:12;;;;;;;26.15;18.17;;;10.00;99.90;;;;;;4992343;28;20447;-44
2021/10/31 00:24:37;;;;;;;25.63;18.65;;;9.90;99.90;;;;;;4991756;28;20033;-48
2021/10/31 00:27:03;;;;;;;27.63;19.77;;;10.00;99.90;;;;;;4992102;28;20034;-46
2021/10/31 00:29:29;;;;;;;27.88;19.52;;;10.00;99.90;;;;;;4992211;28;20037;-45
2021/10/31 00:31:54;;;;;;;28.67;18.48;;;10.00;99.90;;;;;;4992355;28;20048;-45
2021/10/31 00:34:20;;;;;;;21.13;17.70;;;9.90;99.90;;;;;;4992383;28;20023;-47
2021/10/31 00:36:45;;;;;;;26.83;18.77;;;10.00;99.90;;;;;;4992021;28;20501;-44
2021/10/31 00:39:11;;;;;;;25.75;18.13;;;10.00;99.90;;;;;;4992320;28;20022;-46
2021/10/31 00:41:37;;;;;;;32.13;18.58;;;10.10;99.90;;;;;;4991688;28;20388;-44
2021/10/31 00:44:02;;;;;;;26.13;18.73;;;10.10;99.90;;;;;;4992287;28;20037;-44
2021/10/31 00:46:28;;;;;;;24.50;18.02;;;10.20;99.90;;;;;;4991957;28;20037;-42
2021/10/31 00:48:55;;;;;;;29.08;19.20;;;10.20;99.90;;;;;;4992145;28;20555;-45
2021/10/31 00:51:20;;;;;;;26.55;18.45;;;10.30;99.90;;;;;;5007228;28;20030;-48
2021/10/31 00:53:47;;;;;;;26.23;18.80;;;10.20;99.90;;;;;;4992474;28;20026;-51
2021/10/31 00:56:12;;;;;;;24.20;18.63;;;10.20;99.90;;;;;;4991736;28;20108;-49
2021/10/31 00:58:38;;;;;;;23.23;18.17;;;10.20;99.90;;;;;;4990522;28;20069;-50
2021/10/31 01:01:04;;;;;;;25.95;17.98;;;10.10;99.90;;;;;;4991808;28;20026;-47
2021/10/31 01:03:30;;;;;;;26.90;19.15;;;10.20;99.90;;;;;;4991880;28;20026;-50
2021/10/31 01:06:28;;;;;;;31.45;21.52;;;10.20;99.90;;;;;;4991901;28;20500;-46
2021/10/31 01:09:09;;;;;;;29.85;20.02;;;10.20;99.90;;;;;;4991758;28;20023;-46
2021/10/31 01:11:58;;;;;;;22.00;16.35;;;10.20;99.90;;;;;;4991757;28;20503;-46
2021/10/31 01:14:52;;;;;;;27.25;16.38;;;10.10;99.90;;;;;;4991703;28;20045;-46
2021/10/31 01:17:39;;;;;;;23.02;14.57;;;10.10;99.90;;;;;;4990515;28;20049;-48
2021/10/31 01:20:29;;;;;;;17.98;14.77;;;10.10;99.90;;;;;;4991534;28;20192;-48
2021/10/31 01:23:09;;;;;;;25.73;15.85;;;10.00;99.90;;;;;;4990253;28;20038;-47
2021/10/31 01:26:02;;;;;;;21.42;15.65;;;10.00;99.90;;;;;;4991468;28;20034;-47
2021/10/31 01:28:49;;;;;;;24.45;17.73;;;10.20;99.90;;;;;;4991019;28;20498;-47
2021/10/31 01:31:32;;;;;;;22.25;16.27;;;10.20;99.90;;;;;;4991587;28;20037;-48
2021/10/31 01:34:07;;;;;;;19.92;15.52;;;10.10;99.90;;;;;;4991570;28;20028;-45
2021/10/31 01:36:35;;;;;;;23.77;15.98;;;10.10;99.90;;;;;;4991321;28;20070;-45
2021/10/31 01:39:19;;;;;;;24.20;16.27;;;10.10;99.90;;;;;;4991342;28;20038;-46
2021/10/31 01:42:09;;;;;;;19.10;15.93;;;10.10;99.90;;;;;;4991968;28;20050;-44
2021/10/31 01:45:00;;;;;;;19.75;15.05;;;10.00;99.90;;;;;;4992425;28;20030;-47
2021/10/31 01:47:44;;;;;;;19.90;15.68;;;10.00;99.90;;;;;;4984260;28;20039;-48
2021/10/31 01:50:30;;;;;;;23.58;16.50;;;10.00;99.90;;;;;;4991772;28;20023;-51
2021/10/31 01:52:59;;;;;;;;;;;10.10;99.90;;;;;;4990672;28;20395;-50
2021/10/31 01:55:36;;;;;;;25.92;17.80;;;10.10;99.90;;;;;;4991213;28;19905;-45
2021/10/31 01:58:03;;;;;;;24.00;16.10;;;10.10;99.90;;;;;;4990666;28;20081;-47
2021/10/31 02:00:31;;;;;;;24.73;17.35;;;10.20;99.90;;;;;;4991056;28;20042;-46
2021/10/31 02:03:01;;;;;;;17.77;15.68;;;10.10;99.90;;;;;;4991068;28;20029;-48
2021/10/31 02:05:28;;;;;;;25.30;16.85;;;10.10;99.90;;;;;;4991370;28;20057;-45
2021/10/31 02:08:01;;;;;;;24.25;17.70;;;10.10;99.90;;;;;;4990892;28;20026;-45
2021/10/31 02:10:30;;;;;;;30.50;18.60;;;10.20;99.90;;;;;;5005670;28;20026;-45
2021/10/31 02:12:56;;;;;;;26.85;18.73;;;10.10;99.90;;;;;;4989787;28;20030;-48
2021/10/31 02:15:23;;;;;;;26.70;18.25;;;10.10;99.90;;;;;;4991021;28;20033;-49
2021/10/31 02:17:52;;;;;;;23.88;17.08;;;10.10;99.90;;;;;;4990653;28;20026;-51
2021/10/31 02:20:19;;;;;;;23.90;18.13;;;10.10;99.90;;;;;;5005859;28;20512;-48
2021/10/31 02:23:03;;;;;;;24.45;18.33;;;10.20;99.90;;;;;;4990774;28;20124;-50
2021/10/31 02:25:30;;;;;;;29.77;18.08;;;10.20;99.90;;;;;;4990823;28;20026;-48
2021/10/31 02:27:56;;;;;;;30.85;19.05;;;10.20;99.90;;;;;;4990474;28;20034;-48
2021/10/31 02:30:22;;;;;;;32.00;18.77;;;10.20;99.90;;;;;;4990848;28;20026;-50
2021/10/31 02:32:48;;;;;;;23.05;17.90;;;10.20;99.90;;;;;;4991148;28;20045;-50
2021/10/31 02:35:14;;;;;;;21.92;17.52;;;10.20;99.90;;;;;;4990676;28;20041;-49
2021/10/31 02:37:41;;;;;;;25.80;17.88;;;10.20;99.90;;;;;;4990273;28;20038;-50
2021/10/31 02:40:10;;;;;;;26.02;18.13;;;10.20;99.90;;;;;;4990680;28;20050;-46
2021/10/31 02:42:36;;;;;;;25.65;18.73;;;10.20;99.90;;;;;;4990670;28;20406;-51
2021/10/31 02:45:03;;;;;;;24.75;17.88;;;10.20;99.90;;;;;;4990637;28;20029;-48
2021/10/31 02:47:33;;;;;;;25.60;18.25;;;10.20;99.90;;;;;;4990951;28;20057;-48
2021/10/31 02:49:59;;;;;;;27.70;19.27;;;10.30;99.90;;;;;;5009047;28;20018;-49
2021/10/31 02:53:01;;;;;;;27.60;18.70;;;10.30;99.90;;;;;;4992896;28;20552;-47
2021/10/31 02:55:45;;;;;;;29.08;19.23;;;10.20;99.90;;;;;;4994033;28;20026;-46
2021/10/31 02:58:29;;;;;;;24.98;18.35;;;10.20;99.90;;;;;;4993764;28;20081;-46
2021/10/31 03:00:59;;;;;;;25.85;19.55;;;10.10;99.90;;;;;;4993939;28;20026;-47
2021/10/31 03:03:27;;;;;;;26.17;18.85;;;10.10;99.90;;;;;;4992613;28;20033;-46
2021/10/31 03:05:53;;;;;;;31.35;19.23;;;10.10;99.90;;;;;;4992572;28;20077;-46
2021/10/31 03:08:20;;;;;;;29.60;19.77;;;10.10;99.90;;;;;;4993538;28;20034;-46
2021/10/31 03:10:58;;;;;;;27.20;19.27;;;10.10;99.90;;;;;;4993502;28;20077;-47
2021/10/31 03:13:25;;;;;;;27.15;19.85;;;10.10;99.90;;;;;;4993866;28;20030;-45
2021/10/31 03:15:51;;;;;;;24.10;19.45;;;10.10;99.90;;;;;;4993616;28;20030;-49
2021/10/31 03:18:16;;;;;;;26.25;19.65;;;10.10;99.90;;;;;;4993496;28;20019;-51
2021/10/31 03:20:42;;;;;;;28.38;19.88;;;10.10;99.90;;;;;;4993590;28;20037;-47
2021/10/31 03:23:08;;;;;;;27.63;20.02;;;10.10;99.90;;;;;;4993548;28;20050;-45
2021/10/31 03:25:34;;;;;;;23.17;18.85;;;10.10;99.90;;;;;;4993438;28;20023;-46
2021/10/31 03:27:59;;;;;;;25.80;20.13;;;10.10;99.90;;;;;;4992987;28;20036;-45
2021/10/31 03:30:25;;;;;;;27.38;18.88;;;10.10;99.90;;;;;;4993531;28;20045;-45
2021/10/31 03:32:50;;;;;;;27.58;18.73;;;10.10;99.90;;;;;;4993936;28;20447;-51
2021/10/31 03:35:16;;;;;;;27.83;19.75;;;10.20;99.90;;;;;;4993643;28;20030;-47
2021/10/31 03:37:42;;;;;;;24.10;18.13;;;10.20;99.90;;;;;;4993100;28;20031;-45
2021/10/31 03:40:09;;;;;;;25.40;17.67;;;10.20;99.90;;;;;;4993172;28;20050;-49
2021/10/31 03:42:35;;;;;;;28.33;18.15;;;10.20;99.90;;;;;;4991675;28;20076;-45
2021/10/31 03:45:01;;;;;;;28.35;18.30;;;10.20;99.90;;;;;;4992948;28;20027;-48
2021/10/31 03:47:28;;;;;;;23.50;17.80;;;10.20;99.90;;;;;;4992781;28;20038;-48
2021/10/31 03:49:54;;;;;;;25.00;18.17;;;10.20;99.90;;;;;;4993065;28;20019;-45
2021/10/31 03:52:20;;;;;;;38.88;26.80;;;10.30;99.90;;;;;;4993037;28;20026;-46
2021/10/31 03:54:45;;;;;;;27.52;18.98;;;10.30;99.90;;;;;;4992924;28;20034;-45
2021/10/31 03:57:11;;;;;;;24.35;17.35;;;10.30;99.90;;;;;;4992729;28;20031;-49
2021/10/31 03:59:36;;;;;;;22.13;16.42;;;10.40;99.90;;;;;;4991806;28;20733;-45
2021/10/31 04:02:03;;;;;;;18.13;15.13;;;10.40;99.90;;;;;;4992856;28;20030;-45
2021/10/31 04:04:29;;;;;;;21.73;16.13;;;10.30;99.90;;;;;;4992775;28;20023;-49
2021/10/31 04:06:55;;;;;;;28.08;17.10;;;10.20;99.90;;;;;;4992487;28;20035;-46
2021/10/31 04:09:20;;;;;;;25.70;16.45;;;10.30;99.90;;;;;;4992062;28;20035;-45
2021/10/31 04:11:46;;;;;;;28.05;18.95;;;10.40;99.90;;;;;;4992634;28;20488;-48
2021/10/31 04:14:11;;;;;;;24.50;19.10;;;10.50;99.90;;;;;;4992442;28;20062;-49
2021/10/31 04:16:37;;;;;;;26.77;20.02;;;10.40;99.90;;;;;;4992428;28;20506;-45
2021/10/31 04:19:05;;;;;;;31.30;20.55;;;10.30;99.90;;;;;;4992488;28;20026;-45
2021/10/31 04:21:30;;;;;;;27.25;17.90;;;10.30;99.90;;;;;;4992359;28;20105;-46
2021/10/31 04:23:56;;;;;;;22.80;17.38;;;10.20;99.90;;;;;;4992307;28;20511;-49
2021/10/31 04:26:21;;;;;;;21.77;16.63;;;10.00;99.90;;;;;;4992063;28;20073;-45
2021/10/31 04:28:47;;;;;;;19.92;15.73;;;9.90;99.90;;;;;;4992212;28;20037;-47
2021/10/31 04:31:12;;;;;;;21.60;15.65;;;9.80;99.90;;;;;;5007698;28;20627;-45
2021/10/31 04:33:38;;;;;;;18.83;14.98;;;9.70;99.90;;;;;;4992411;28;20030;-47
2021/10/31 04:36:05;;;;;;;17.30;14.30;;;9.60;99.90;;;;;;4992277;28;20042;-46
2021/10/31 04:38:32;;;;;;;17.38;13.93;;;9.60;99.90;;;;;;4991831;28;20037;-45
2021/10/31 04:40:58;;;;;;;15.25;13.63;;;9.60;99.90;;;;;;4991997;28;20022;-50
2021/10/31 04:43:25;;;;;;;17.48;13.98;;;9.50;99.90;;;;;;4992032;28;20106;-47
2021/10/31 04:45:51;;;;;;;19.60;14.15;;;9.50;99.90;;;;;;4992039;28;20018;-49
2021/10/31 04:48:18;;;;;;;17.10;14.38;;;9.40;99.90;;;;;;4991649;28;20019;-47
2021/10/31 04:50:44;;;;;;;16.35;13.18;;;9.50;99.90;;;;;;4991862;28;20029;-45
2021/10/31 04:53:09;;;;;;;17.73;14.48;;;9.40;99.90;;;;;;4991809;28;20476;-46
2021/10/31 04:55:40;;;;;;;21.20;15.50;;;9.40;99.90;;;;;;4991813;28;20027;-48
2021/10/31 04:58:05;;;;;;;15.07;13.25;;;9.40;99.90;;;;;;4990156;28;20026;-45
2021/10/31 05:00:31;;;;;;;19.48;13.70;;;9.40;99.90;;;;;;4991896;28;20036;-50
2021/10/31 05:02:57;;;;;;;23.05;14.60;;;9.40;99.90;;;;;;4991697;28;20030;-46
2021/10/31 05:05:23;;;;;;;18.35;13.68;;;9.50;99.90;;;;;;4991727;28;20030;-48
2021/10/31 05:07:51;;;;;;;19.45;15.27;;;9.50;99.90;;;;;;4991551;28;20493;-46
2021/10/31 05:10:17;;;;;;;21.85;15.93;;;9.60;99.90;;;;;;4991164;28;20180;-47
2021/10/31 05:12:44;;;;;;;21.92;15.13;;;9.70;99.90;;;;;;4991742;28;20113;-46
2021/10/31 05:15:10;;;;;;;20.15;14.55;;;9.70;99.90;;;;;;4991616;28;20034;-44
2021/10/31 05:17:35;;;;;;;18.15;15.05;;;9.70;99.90;;;;;;4991308;28;20026;-47
2021/10/31 05:20:01;;;;;;;18.25;13.88;;;9.70;99.90;;;;;;4991474;28;20080;-45
2021/10/31 05:22:27;;;;;;;17.27;12.80;;;9.80;99.90;;;;;;4991763;28;20531;-47
2021/10/31 05:24:52;;;;;;;16.63;14.10;;;9.80;99.90;;;;;;4991933;28;20381;-46
2021/10/31 05:27:18;;;;;;;20.70;14.90;;;9.70;99.90;;;;;;4991830;28;20022;-46
2021/10/31 05:29:44;;;;;;;23.45;16.25;;;9.70;99.90;;;;;;4992764;28;20035;-44
2021/10/31 05:32:09;;;;;;;21.00;15.98;;;9.90;99.90;;;;;;4991854;28;20037;-48
2021/10/31 05:34:35;;;;;;;19.38;15.35;;;9.90;99.90;;;;;;4991243;28;20392;-48
2021/10/31 05:37:01;;;;;;;15.70;13.20;;;9.90;99.90;;;;;;4991054;28;20041;-45
2021/10/31 05:39:26;;;;;;;17.92;14.43;;;10.00;99.90;;;;;;4991277;28;20033;-45
2021/10/31 05:41:52;;;;;;;19.80;14.00;;;10.00;99.90;;;;;;4991126;28;20034;-47
2021/10/31 05:44:17;;;;;;;17.20;12.38;;;9.90;99.90;;;;;;4991400;28;20018;-46
2021/10/31 05:46:43;;;;;;;15.05;11.55;;;10.00;99.90;;;;;;4991517;28;20073;-46
2021/10/31 05:49:08;;;;;;;15.05;13.02;;;9.90;99.90;;;;;;4991664;28;20030;-46
2021/10/31 05:51:34;;;;;;;20.83;13.57;;;10.00;99.90;;;;;;4991068;28;20023;-45
2021/10/31 05:54:00;;;;;;;17.02;13.48;;;10.00;99.90;;;;;;4991269;28;20034;-44
2021/10/31 05:56:26;;;;;;;17.33;14.07;;;10.00;99.90;;;;;;4990950;28;20511;-47
2021/10/31 05:58:51;;;;;;;17.92;14.63;;;10.00;99.90;;;;;;4991062;28;20054;-44
2021/10/31 06:01:17;;;;;;;15.63;13.20;;;10.10;99.90;;;;;;4991088;28;20049;-45
2021/10/31 06:03:42;;;;;;;16.95;14.40;;;10.00;99.90;;;;;;4990992;28;20106;-46
2021/10/31 06:06:08;;;;;;;17.67;14.18;;;10.00;99.90;;;;;;4990844;28;20022;-49
2021/10/31 06:08:33;;;;;;;20.20;14.75;;;10.00;99.90;;;;;;4990895;28;20027;-48
2021/10/31 06:10:59;;;;;;;18.30;15.48;;;10.10;99.90;;;;;;4989356;28;20038;-45
2021/10/31 06:13:25;;;;;;;17.58;14.38;;;10.10;99.90;;;;;;4990941;28;20033;-50
2021/10/31 06:15:50;;;;;;;19.17;14.55;;;10.10;99.90;;;;;;4991010;28;20062;-48
2021/10/31 06:18:17;;;;;;;15.45;12.95;;;10.00;99.90;;;;;;4990592;28;20038;-46
2021/10/31 06:20:46;;;;;;;23.00;13.82;;;10.10;99.90;;;;;;4990828;28;20093;-48
2021/10/31 06:23:13;;;;;;;16.88;13.10;;;10.10;99.90;;;;;;4991360;28;20102;-46
2021/10/31 06:25:39;;;;;;;16.10;13.35;;;10.10;99.90;;;;;;4994710;28;20444;-44
2021/10/31 06:28:05;;;;;;;16.02;12.73;;;10.10;99.90;;;;;;4994301;28;20044;-49
2021/10/31 06:30:30;;;;;;;20.08;14.52;;;10.10;99.90;;;;;;4994578;28;20050;-48
2021/10/31 06:32:56;;;;;;;19.98;15.65;;;10.10;99.90;;;;;;4994742;28;20084;-47
2021/10/31 06:35:21;;;;;;;19.20;15.13;;;10.10;99.90;;;;;;5009545;28;20030;-45
2021/10/31 06:37:49;;;;;;;24.08;15.05;;;10.20;99.90;;;;;;4992993;28;20042;-49
2021/10/31 06:40:15;;;;;;;21.67;14.95;;;10.20;99.90;;;;;;4994569;28;20052;-45
2021/10/31 06:42:41;;;;;;;19.75;15.38;;;10.20;99.90;;;;;;4994613;28;20026;-45
2021/10/31 06:45:07;;;;;;;27.98;17.02;;;10.20;99.90;;;;;;4994565;28;20073;-48
2021/10/31 06:47:32;;;;;;;21.70;16.30;;;10.10;99.90;;;;;;5009346;28;20024;-46
2021/10/31 06:49:59;;;;;;;20.05;15.63;;;10.10;99.90;;;;;;4994429;28;20015;-48
2021/10/31 06:52:24;;;;;;;18.83;14.90;;;10.10;99.90;;;;;;4994438;28;20026;-46
2021/10/31 06:54:51;;;;;;;18.67;14.52;;;10.10;99.90;;;;;;4994291;28;20038;-50
2021/10/31 06:57:16;;;;;;;20.02;15.70;;;10.10;99.90;;;;;;4994065;28;20476;-48
2021/10/31 06:59:42;;;;;;;21.30;15.27;;;10.10;99.90;;;;;;5009395;28;20034;-49
2021/10/31 07:02:07;;;;;;;19.33;14.80;;;10.20;99.90;;;;;;4994001;28;20470;-45
2021/10/31 07:04:34;;;;;;;19.92;13.93;;;10.20;99.90;;;;;;4993994;28;20026;-44
2021/10/31 07:06:59;;;;;;;20.15;15.18;;;10.30;99.90;;;;;;4993914;28;20018;-47
2021/10/31 07:09:25;;;;;;;17.08;14.00;;;10.40;99.90;;;;;;4993584;28;20036;-45
2021/10/31 07:11:51;;;;;;;18.77;13.50;;;10.50;99.90;;;;;;4993851;28;20027;-46
2021/10/31 07:14:16;;;;;;;15.80;13.88;;;10.60;99.90;;;;;;4993971;28;20029;-48
2021/10/31 07:16:42;;;;;;;17.40;13.55;;;10.60;99.90;;;;;;4993442;28;20042;-49
2021/10/31 07:19:07;;;;;;;17.48;13.50;;;10.70;99.90;;;;;;5007630;28;20026;-44
2021/10/31 07:21:33;;;;;;;18.75;13.80;;;10.80;99.90;;;;;;5013187;28;20391;-46
2021/10/31 07:23:58;;;;;;;17.85;14.20;;;10.80;99.90;;;;;;5013178;28;20057;-50
2021/10/31 07:26:24;;;;;;;19.80;15.05;;;11.00;99.90;;;;;;5012911;28;20098;-50
2021/10/31 07:28:49;;;;;;;16.55;14.60;;;11.10;99.90;;;;;;5011807;28;20423;-46
2021/10/31 07:31:16;;;;;;;18.48;14.55;;;11.10;99.90;;;;;;5003636;28;20027;-49
2021/10/31 07:33:42;;;;;;;18.90;15.65;;;11.10;99.90;;;;;;5005188;28;20026;-46
2021/10/31 07:36:08;;;;;;;22.65;14.38;;;11.20;99.90;;;;;;4994524;28;20488;-46
2021/10/31 07:38:35;;;;;;;19.33;14.07;;;11.30;99.90;;;;;;4993248;28;20558;-45
2021/10/31 07:41:00;;;;;;;21.05;14.95;;;11.30;99.90;;;;;;4993554;28;20129;-49
2021/10/31 07:43:26;;;;;;;18.88;15.25;;;11.30;99.90;;;;;;4993354;28;20105;-46
2021/10/31 07:45:52;;;;;;;18.75;14.00;;;11.40;99.90;;;;;;4992138;28;20022;-49
2021/10/31 07:48:18;;;;;;;20.77;15.05;;;11.40;99.90;;;;;;4993190;28;20105;-50
2021/10/31 07:50:43;;;;;;;20.60;16.33;;;11.50;99.90;;;;;;4993176;28;20023;-50
2021/10/31 07:53:10;;;;;;;14.70;13.15;;;11.60;99.90;;;;;;4993069;28;20041;-50
2021/10/31 07:55:38;;;;;;;16.55;13.68;;;11.70;99.90;;;;;;4992984;28;20120;-47
2021/10/31 07:58:05;;;;;;;17.10;13.80;;;11.80;99.90;;;;;;4992654;28;20395;-47
2021/10/31 08:00:31;;;;;;;15.90;13.18;;;12.00;99.90;;;;;;4992906;28;20399;-49
2021/10/31 08:02:57;;;;;;;17.20;13.80;;;12.10;99.90;;;;;;4993019;28;20026;-49
2021/10/31 08:05:24;;;;;;;18.30;14.23;;;12.20;99.90;;;;;;4992993;28;20033;-49
2021/10/31 08:07:51;;;;;;;16.92;13.63;;;12.30;99.90;;;;;;4992547;28;20476;-45
2021/10/31 08:10:17;;;;;;;15.88;14.13;;;12.50;99.90;;;;;;4996264;28;20523;-45
2021/10/31 08:12:43;;;;;;;18.10;13.93;;;12.50;99.90;;;;;;5002052;28;20045;-49
2021/10/31 08:15:08;;;;;;;18.95;13.95;;;12.60;99.90;;;;;;5012262;28;20463;-49
2021/10/31 08:17:34;;;;;;;16.15;13.48;;;12.60;99.90;;;;;;4995932;28;20030;-45
2021/10/31 08:20:00;;;;;;;14.77;12.73;;;12.70;99.90;;;;;;4992593;28;20022;-47
2021/10/31 08:22:26;;;;;;;15.25;13.18;;;12.70;99.90;;;;;;4992492;28;20026;-44
2021/10/31 08:24:51;;;;;;;17.83;13.50;;;12.70;99.90;;;;;;4999413;28;20025;-44
2021/10/31 08:27:17;;;;;;;16.67;13.52;;;12.80;99.90;;;;;;5011728;28;20029;-45
2021/10/31 08:29:45;;;;;;;19.65;14.15;;;12.80;99.90;;;;;;5008382;28;20089;-45
2021/10/31 08:32:11;;;;;;;15.05;13.45;;;12.70;99.90;;;;;;5010891;28;20034;-42
2021/10/31 08:34:37;;;;;;;19.45;14.07;;;12.70;99.90;;;;;;4999514;28;20093;-43
2021/10/31 08:37:03;;;;;;;20.05;13.75;;;12.70;99.90;;;;;;4993351;28;20034;-44
2021/10/31 08:39:28;;;;;;;16.73;13.57;;;12.80;99.90;;;;;;5001474;28;20034;-44
2021/10/31 08:41:54;;;;;;;14.55;12.95;;;12.80;99.90;;;;;;4996828;28;20030;-42
2021/10/31 08:44:19;;;;;;;17.35;13.32;;;12.90;99.90;;;;;;4992776;28;20026;-43
2021/10/31 08:46:45;;;;;;;14.30;12.73;;;13.00;99.90;;;;;;4991580;28;20114;-44
2021/10/31 08:49:10;;;;;;;15.88;12.80;;;13.00;99.90;;;;;;4992588;28;20365;-47
2021/10/31 08:51:36;;;;;;;18.48;12.27;;;13.20;99.90;;;;;;4992206;28;20026;-54
2021/10/31 08:54:02;;;;;;;12.38;10.52;;;13.80;99.90;;;;;;4992826;28;20113;-44
2021/10/31 08:56:29;;;;;;;13.80;9.70;;;14.80;99.90;;;;;;4991660;28;20085;-43
2021/10/31 08:58:56;;;;;;;10.93;8.77;;;16.00;99.90;;;;;;4992562;28;20045;-42
2021/10/31 09:01:22;;;;;;;10.63;8.48;;;16.90;99.90;;;;;;4997059;28;20034;-43
2021/10/31 09:03:50;;;;;;;13.18;8.63;;;17.80;99.90;;;;;;4999697;28;20092;-43
2021/10/31 09:06:15;;;;;;;10.88;8.38;;;18.80;99.90;;;;;;4999554;28;20050;-44
2021/10/31 09:08:41;;;;;;;11.02;7.70;;;19.60;99.90;;;;;;4993020;28;20106;-44
2021/10/31 09:11:07;;;;;;;10.80;7.28;;;20.00;99.90;;;;;;4998386;28;20037;-43
2021/10/31 09:13:33;;;;;;;6.40;5.85;;;20.40;99.90;;;;;;4996197;28;20544;-42
2021/10/31 09:15:58;;;;;;;8.35;6.32;;;20.90;99.90;;;;;;4991513;28;20026;-42
2021/10/31 09:18:24;;;;;;;8.65;6.05;;;21.20;99.90;;;;;;5003013;28;20038;-44
2021/10/31 09:20:50;;;;;;;7.47;6.13;;;21.50;99.20;;;;;;4991371;28;20022;-43
2021/10/31 09:23:16;;;;;;;7.30;6.50;;;21.70;99.10;;;;;;4996898;28;20026;-46
2021/10/31 09:25:41;;;;;;;8.57;6.13;;;22.10;98.50;;;;;;4997618;28;20054;-42
2021/10/31 09:28:07;;;;;;;6.38;5.75;;;22.60;97.60;;;;;;4992238;28;20033;-42
2021/10/31 09:30:39;;;;;;;5.97;5.25;;;22.40;97.00;;;;;;5002331;28;20022;-41
2021/10/31 09:33:05;;;;;;;6.40;5.68;;;21.90;97.80;;;;;;4992991;28;20030;-42
2021/10/31 09:35:35;;;;;;;9.27;5.93;;;21.30;99.10;;;;;;5007078;28;20121;-46
2021/10/31 09:38:03;;;;;;;5.82;5.10;;;20.70;99.40;;;;;;5009368;28;20034;-42
2021/10/31 09:40:31;;;;;;;5.65;5.15;;;20.10;99.90;;;;;;4999990;28;20018;-44
2021/10/31 09:42:59;;;;;;;7.07;5.75;;;19.30;99.90;;;;;;5011236;28;20025;-47
2021/10/31 09:45:25;;;;;;;6.18;4.93;;;18.60;99.90;;;;;;5011193;28;20045;-42
2021/10/31 09:47:56;;;;;;;11.30;8.65;;;18.30;99.90;;;;;;5011386;28;20426;-45
2021/10/31 09:50:23;;;;;;;8.95;6.47;;;17.90;99.90;;;;;;5011309;28;20054;-44
2021/10/31 09:52:49;;;;;;;7.70;5.05;;;17.60;99.90;;;;;;5010995;28;20113;-46
2021/10/31 09:55:14;;;;;;;6.05;5.25;;;17.30;99.90;;;;;;5000225;28;20476;-41
2021/10/31 09:57:40;;;;;;;6.50;5.65;;;16.90;99.90;;;;;;4992296;28;20026;-46
2021/10/31 10:00:06;;;;;;;7.88;5.28;;;16.60;99.90;;;;;;4995590;28;20038;-40
2021/10/31 10:05:21;;;;;;;6.78;6.07;;;16.20;99.90;;;;;;5011663;28;20025;-41
2021/10/31 10:08:06;;;;;;;6.63;6.00;;;16.20;99.90;;;;;;4996491;28;20038;-41
2021/10/31 10:10:39;;;;;;;6.32;5.55;;;16.20;99.90;;;;;;5014116;28;20038;-48
2021/10/31 10:13:24;;;;;;;6.95;5.45;;;16.30;99.90;;;;;;5014880;28;20097;-40
2021/10/31 10:15:51;;;;;;;7.87;6.00;;;16.40;99.90;;;;;;5013721;28;20495;-40
2021/10/31 10:18:33;;;;;;;6.25;5.63;;;16.40;99.90;;;;;;5014553;28;20018;-41
2021/10/31 10:21:19;;;;;;;7.15;4.97;;;16.50;99.90;;;;;;5014671;28;20042;-40
2021/10/31 10:23:56;;;;;;;7.80;5.10;;;16.70;99.90;;;;;;5009698;28;20034;-39
2021/10/31 10:26:29;;;;;;;11.25;6.57;;;17.00;99.90;;;;;;5012969;28;20391;-43
2021/10/31 10:29:19;;;;;;;7.10;5.03;;;17.30;99.90;;;;;;5008850;28;20041;-40
2021/10/31 10:32:16;;;;;;;5.20;4.10;;;17.50;99.90;;;;;;4996357;28;20054;-40
2021/10/31 10:34:48;;;;;;;4.72;4.15;;;17.60;99.90;;;;;;4997708;28;20451;-39
2021/10/31 10:37:21;;;;;;;5.18;3.92;;;17.60;99.90;;;;;;5009287;28;20025;-38
2021/10/31 10:40:00;;;;;;;7.38;4.47;;;17.40;99.90;;;;;;5014839;28;20034;-39
2021/10/31 10:42:38;;;;;;;4.22;3.92;;;17.40;99.90;;;;;;5014391;28;20037;-39
2021/10/31 10:45:05;;;;;;;3.80;3.40;;;17.20;99.90;;;;;;5011534;28;20030;-46
2021/10/31 10:47:32;;;;;;;3.22;3.03;;;17.10;99.90;;;;;;4996065;28;20051;-42
2021/10/31 10:49:59;;;;;;;3.70;3.13;;;17.00;99.90;;;;;;4995396;28;20026;-41
2021/10/31 10:52:30;;;;;;;6.07;3.10;;;16.90;99.90;;;;;;4995390;28;20034;-38
2021/10/31 10:55:02;;;;;;;3.38;2.75;;;16.90;99.90;;;;;;4995137;28;20042;-40
2021/10/31 10:57:33;;;;;;;2.97;2.78;;;17.00;99.90;;;;;;4994577;28;20092;-39
2021/10/31 11:00:06;;;;;;;3.83;3.42;;;17.00;99.90;;;;;;4994333;28;20026;-47
2021/10/31 11:02:31;;;;;;;7.68;3.42;;;17.20;99.90;;;;;;5009205;28;20109;-49
2021/10/31 11:05:00;;;;;;;3.05;2.78;;;17.10;99.90;;;;;;5013597;28;20534;-46
2021/10/31 11:07:31;;;;;;;3.53;2.60;;;17.20;99.90;;;;;;5002832;28;20077;-46
2021/10/31 11:09:57;;;;;;;3.45;3.15;;;17.20;99.90;;;;;;4993215;28;20026;-49
2021/10/31 11:12:32;;;;;;;4.10;3.70;;;17.20;99.90;;;;;;4993665;28;20037;-48
2021/10/31 11:15:14;;;;;;;4.45;3.53;;;17.30;99.90;;;;;;4998984;28;20026;-48
2021/10/31 11:17:41;;;;;;;6.00;2.75;;;17.20;99.90;;;;;;5008915;28;20092;-45
2021/10/31 11:20:09;;;;;;;4.00;2.78;;;17.10;99.90;;;;;;5013354;28;20026;-46
2021/10/31 11:22:36;;;;;;;2.92;2.58;;;17.00;99.90;;;;;;5007849;28;20116;-45
2021/10/31 11:25:03;;;;;;;4.60;3.28;;;16.90;99.90;;;;;;5013172;28;20048;-47
2021/10/31 11:27:31;;;;;;;3.97;2.42;;;16.80;99.90;;;;;;5012643;28;20042;-47
2021/10/31 11:29:58;;;;;;;2.90;2.60;;;16.80;99.90;;;;;;5013236;28;20057;-48
2021/10/31 11:32:26;;;;;;;2.42;1.85;;;16.80;99.90;;;;;;5012855;28;20030;-48
2021/10/31 11:34:55;;;;;;;2.63;2.42;;;16.80;99.90;;;;;;5012813;28;20022;-50
2021/10/31 11:37:28;;;;;;;2.42;2.22;;;16.80;99.90;;;;;;5012557;28;20052;-51
2021/10/31 11:39:57;;;;;;;4.28;2.00;;;16.80;99.90;;;;;;5013814;28;20099;-53
2021/10/31 11:42:25;;;;;;;2.15;1.92;;;16.90;99.90;;;;;;5011366;28;20030;-47
2021/10/31 11:45:11;;;;;;;1.98;1.88;;;16.90;99.90;;;;;;5010977;28;20038;-46
2021/10/31 11:47:38;;;;;;;3.03;2.35;;;17.00;99.90;;;;;;4998009;28;20038;-48
2021/10/31 11:50:17;;;;;;;3.80;1.73;;;17.00;99.90;;;;;;5002343;28;20227;-47
2021/10/31 11:53:00;;;;;;;6.43;2.03;;;16.90;99.90;;;;;;4997501;28;20025;-44
2021/10/31 11:55:28;;;;;;;4.32;2.03;;;16.90;99.90;;;;;;5012234;28;20037;-49
2021/10/31 11:58:23;;;;;;;5.13;2.72;;;16.90;99.90;;;;;;5011835;28;20105;-50
2021/10/31 12:00:54;;;;;;;4.88;2.38;;;16.90;99.90;;;;;;5011913;28;20025;-52
2021/10/31 12:03:32;;;;;;;1.88;1.75;;;17.00;99.90;;;;;;5006635;28;20038;-48
2021/10/31 12:06:22;;;;;;;5.05;1.90;;;17.10;99.90;;;;;;5002565;28;20026;-45
2021/10/31 12:08:53;;;;;;;2.38;1.60;;;17.10;99.90;;;;;;4981951;28;20035;-51
2021/10/31 12:11:39;;;;;;;1.45;1.35;;;17.20;99.90;;;;;;5001125;28;20045;-47
2021/10/31 12:14:09;;;;;;;;;;;17.20;99.90;;;;;;4996573;28;20111;-46
2021/10/31 12:16:56;;;;;;;1.83;1.70;;;17.20;99.90;;;;;;5002991;28;19917;-48
2021/10/31 12:19:44;;;;;;;2.13;1.90;;;17.20;99.90;;;;;;4992285;28;20030;-46
2021/10/31 12:22:12;;;;;;;3.15;1.42;;;17.20;99.90;;;;;;4992061;28;20035;-45
2021/10/31 12:24:40;;;;;;;4.03;1.75;;;17.20;99.90;;;;;;4992274;28;20494;-46
2021/10/31 12:27:21;;;;;;;1.30;1.20;;;17.20;99.90;;;;;;4992341;28;20030;-50
2021/10/31 12:30:25;;;;;;;1.60;1.50;;;17.30;99.90;;;;;;4991822;28;20034;-50
2021/10/31 12:33:04;;;;;;;1.48;1.38;;;17.30;99.90;;;;;;4979332;28;20041;-46
2021/10/31 12:35:36;;;;;;;1.73;1.63;;;17.40;99.90;;;;;;5011602;28;20038;-46
2021/10/31 12:38:20;;;;;;;1.65;1.55;;;17.40;99.90;;;;;;5011760;28;20022;-46
2021/10/31 12:41:06;;;;;;;2.40;1.52;;;17.40;99.90;;;;;;5011024;28;20448;-47
2021/10/31 12:43:40;;;;;;;2.10;1.90;;;17.40;99.90;;;;;;4989694;28;20054;-47
2021/10/31 12:46:22;;;;;;;3.40;1.65;;;17.30;99.90;;;;;;5000950;28;20033;-48